Time;durP1;ratioP1;P1;durP2;ratioP2;P2;SDS_P1;SDS_P2;PMS_P1;PMS_P2;Temp;Humidity;BMP_temperature;BMP_pressure;BME280_temperature;BME280_humidity;BME280_pressure;Samples;Min_cycle;Max_cycle;Signal;HPM_P1;HPM_P2
2021/04/30 00:00:37;;;;;;;4.90;1.45;;;8.00;99.90;;;;;;13043565;22;20027;-46
2021/04/30 00:05:38;;;;;;;3.65;1.00;;;8.00;99.90;;;;;;13023532;22;20131;-46
2021/04/30 00:10:40;;;;;;;2.72;1.05;;;8.00;99.90;;;;;;13003730;22;20018;-46
2021/04/30 00:15:41;;;;;;;8.55;1.77;;;8.10;99.90;;;;;;13019149;22;20041;-46
2021/04/30 00:20:52;;;;;;;3.53;1.42;;;8.10;99.90;;;;;;13019324;22;20352;-46
2021/04/30 00:25:55;;;;;;;12.05;1.23;;;8.00;99.90;;;;;;13022692;22;20726;-46
2021/04/30 00:30:59;;;;;;;4.70;1.63;;;8.00;99.90;;;;;;13022754;22;20011;-46
2021/04/30 00:35:59;;;;;;;2.42;1.13;;;8.00;99.90;;;;;;13020312;22;20425;-46
2021/04/30 00:41:00;;;;;;;4.03;1.02;;;8.00;99.90;;;;;;13019732;22;20102;-46
2021/04/30 00:46:01;;;;;;;7.18;1.08;;;7.90;99.90;;;;;;13021000;22;20011;-46
2021/04/30 00:51:02;;;;;;;11.00;1.23;;;7.90;99.90;;;;;;13014529;22;20417;-46
2021/04/30 00:56:03;;;;;;;2.95;1.13;;;7.90;99.90;;;;;;13019637;22;20042;-46
2021/04/30 01:01:07;;;;;;;6.20;1.25;;;7.90;99.90;;;;;;13022193;22;20495;-47
2021/04/30 01:06:08;;;;;;;1.83;0.73;;;8.00;99.90;;;;;;13024241;22;20034;-47
2021/04/30 01:11:10;;;;;;;3.97;1.58;;;8.00;99.90;;;;;;13019572;22;20187;-46
2021/04/30 01:16:11;;;;;;;2.42;0.85;;;7.90;99.90;;;;;;13046403;22;20416;-47
2021/04/30 01:21:13;;;;;;;4.32;2.08;;;8.00;99.90;;;;;;13015727;22;20069;-47
2021/04/30 01:26:15;;;;;;;3.90;1.10;;;8.00;99.90;;;;;;13020275;22;20603;-46
2021/04/30 01:31:17;;;;;;;3.58;1.00;;;8.00;99.90;;;;;;13021870;22;20011;-46
2021/04/30 01:36:18;;;;;;;5.68;2.20;;;8.10;99.90;;;;;;13026598;22;20093;-46
2021/04/30 01:41:23;;;;;;;3.25;0.98;;;8.10;99.90;;;;;;13025727;22;20042;-46
2021/04/30 01:46:24;;;;;;;3.63;1.50;;;8.10;99.90;;;;;;13023528;22;20011;-46
2021/04/30 01:51:24;;;;;;;3.85;0.98;;;8.00;99.90;;;;;;13008763;22;20010;-46
2021/04/30 01:56:25;;;;;;;4.20;1.35;;;8.00;99.90;;;;;;13025625;22;20488;-46
2021/04/30 02:01:26;;;;;;;5.80;1.25;;;8.10;99.90;;;;;;13024741;22;20258;-46
2021/04/30 02:06:27;;;;;;;6.60;0.90;;;8.00;99.90;;;;;;13028958;22;20015;-46
2021/04/30 02:11:27;;;;;;;3.22;1.30;;;8.00;99.90;;;;;;13029441;22;20865;-46
2021/04/30 02:16:28;;;;;;;3.20;0.90;;;8.00;99.90;;;;;;13051438;22;20097;-46
2021/04/30 02:21:29;;;;;;;11.60;1.17;;;8.00;99.90;;;;;;13026329;22;20097;-46
2021/04/30 02:26:30;;;;;;;8.73;1.35;;;8.00;99.90;;;;;;13021868;22;20022;-46
2021/04/30 02:31:30;;;;;;;4.20;1.15;;;8.00;99.90;;;;;;13022929;22;20354;-46
2021/04/30 02:36:31;;;;;;;2.22;0.70;;;8.00;99.90;;;;;;13024909;22;20039;-47
2021/04/30 02:41:32;;;;;;;4.85;1.75;;;8.00;99.90;;;;;;13024847;22;20088;-46
2021/04/30 02:46:32;;;;;;;4.03;1.38;;;8.00;99.90;;;;;;13025503;22;20461;-46
2021/04/30 02:51:33;;;;;;;9.02;1.67;;;8.10;99.90;;;;;;13027272;22;20678;-46
2021/04/30 02:56:35;;;;;;;2.50;1.33;;;8.10;99.90;;;;;;13026976;22;20023;-46
2021/04/30 03:01:36;;;;;;;4.50;1.58;;;8.10;99.90;;;;;;13023520;22;20031;-46
2021/04/30 03:06:40;;;;;;;3.25;1.40;;;8.10;99.90;;;;;;13013881;22;20011;-46
2021/04/30 03:11:41;;;;;;;4.50;1.75;;;8.10;99.90;;;;;;13016358;22;20011;-46
2021/04/30 03:16:43;;;;;;;3.33;1.35;;;8.10;99.90;;;;;;13047913;22;20019;-46
2021/04/30 03:21:43;;;;;;;4.97;1.80;;;8.00;99.90;;;;;;13022935;22;20095;-46
2021/04/30 03:26:44;;;;;;;5.00;2.47;;;8.00;99.90;;;;;;13049162;22;20258;-46
2021/04/30 03:31:45;;;;;;;2.88;1.20;;;8.00;99.90;;;;;;13024628;22;20011;-47
2021/04/30 03:36:46;;;;;;;5.28;2.00;;;8.10;99.90;;;;;;13025767;22;20022;-47
2021/04/30 03:42:08;;;;;;;4.07;1.55;;;8.10;99.90;;;;;;13018570;22;20019;-46
2021/04/30 03:47:15;;;;;;;4.95;2.15;;;8.00;99.90;;;;;;13036385;22;19995;-80
2021/04/30 03:52:15;;;;;;;4.13;1.98;;;8.00;99.90;;;;;;13079711;22;20549;-81
2021/04/30 03:57:16;;;;;;;3.42;1.83;;;8.00;99.90;;;;;;13070701;22;20074;-80
2021/04/30 04:02:16;;;;;;;6.35;1.90;;;8.00;99.90;;;;;;13024300;22;20003;-80
2021/04/30 04:07:17;;;;;;;4.43;1.40;;;8.00;99.90;;;;;;13049619;22;20345;-80
2021/04/30 04:12:18;;;;;;;8.85;1.83;;;8.00;99.90;;;;;;13025818;22;20071;-80
2021/04/30 04:17:18;;;;;;;4.63;2.28;;;8.00;99.90;;;;;;13077020;22;20006;-80
2021/04/30 04:22:20;;;;;;;5.60;2.15;;;7.90;99.90;;;;;;13050447;22;20014;-80
2021/04/30 04:27:20;;;;;;;5.63;2.63;;;7.90;99.90;;;;;;13052849;22;20434;-80
2021/04/30 04:32:21;;;;;;;5.13;2.30;;;7.90;99.90;;;;;;13052413;22;20002;-79
2021/04/30 04:37:22;;;;;;;7.68;2.50;;;7.90;99.90;;;;;;13064938;22;20470;-79
2021/04/30 04:42:22;;;;;;;8.93;3.35;;;7.80;99.90;;;;;;13077093;22;20036;-79
2021/04/30 04:47:23;;;;;;;6.57;2.42;;;7.90;99.90;;;;;;13050419;22;20033;-79
2021/04/30 04:52:23;;;;;;;9.80;2.65;;;7.90;99.90;;;;;;13048876;22;20003;-80
2021/04/30 04:57:24;;;;;;;9.57;3.00;;;8.00;99.90;;;;;;13099452;22;20040;-80
2021/04/30 05:02:25;;;;;;;11.68;3.40;;;8.10;99.90;;;;;;13070596;22;20366;-80
2021/04/30 05:07:26;;;;;;;10.60;2.75;;;8.10;99.90;;;;;;13072532;22;20014;-80
2021/04/30 05:12:27;;;;;;;8.00;2.95;;;8.10;99.90;;;;;;13100117;22;20007;-80
2021/04/30 05:17:27;;;;;;;6.68;2.90;;;8.10;99.90;;;;;;13046872;22;20034;-80
2021/04/30 05:22:28;;;;;;;7.72;2.88;;;8.00;99.90;;;;;;13073880;22;20022;-79
2021/04/30 05:27:28;;;;;;;7.95;3.58;;;8.00;99.90;;;;;;13047917;22;20033;-79
2021/04/30 05:32:29;;;;;;;6.95;2.97;;;7.90;99.90;;;;;;13047926;22;20030;-79
2021/04/30 05:37:31;;;;;;;10.82;3.08;;;7.90;99.90;;;;;;13072354;22;20809;-79
2021/04/30 05:42:31;;;;;;;9.23;2.70;;;7.90;99.90;;;;;;13047297;22;20087;-80
2021/04/30 05:47:32;;;;;;;7.20;2.95;;;7.90;99.90;;;;;;13047294;22;20166;-80
2021/04/30 05:52:33;;;;;;;8.77;3.58;;;7.90;99.90;;;;;;13098923;22;20029;-80
2021/04/30 05:57:33;;;;;;;9.75;4.15;;;7.90;99.90;;;;;;13055095;22;20019;-80
2021/04/30 06:02:34;;;;;;;14.55;3.35;;;7.90;99.90;;;;;;13047648;22;20037;-80
2021/04/30 06:07:35;;;;;;;17.65;5.28;;;7.90;99.90;;;;;;13047800;22;20030;-80
2021/04/30 06:12:36;;;;;;;8.10;3.55;;;8.00;99.90;;;;;;13097618;22;20091;-79
2021/04/30 06:17:37;;;;;;;8.18;3.10;;;8.00;99.90;;;;;;13047293;22;20006;-80
2021/04/30 06:22:38;;;;;;;10.00;3.05;;;8.00;99.90;;;;;;13073975;22;20335;-80
2021/04/30 06:27:39;;;;;;;5.63;3.00;;;8.00;99.90;;;;;;13100611;22;20010;-80
2021/04/30 06:32:42;;;;;;;10.63;2.47;;;8.00;99.90;;;;;;13073277;22;20045;-79
2021/04/30 06:37:43;;;;;;;10.82;3.58;;;8.00;99.90;;;;;;13074017;22;20014;-80
2021/04/30 06:42:44;;;;;;;9.77;3.70;;;8.10;99.90;;;;;;13057004;22;20007;-81
2021/04/30 06:47:45;;;;;;;11.70;3.75;;;8.10;99.90;;;;;;13076723;22;20555;-80
2021/04/30 06:52:46;;;;;;;7.70;2.75;;;8.10;99.90;;;;;;13072841;22;20026;-80
2021/04/30 06:57:46;;;;;;;7.40;3.63;;;8.10;99.90;;;;;;13075388;22;20216;-80
2021/04/30 07:02:47;;;;;;;6.82;2.95;;;8.10;99.90;;;;;;13075635;22;20025;-80
2021/04/30 07:07:48;;;;;;;7.82;3.63;;;8.00;99.90;;;;;;13076919;22;20038;-80
2021/04/30 07:12:48;;;;;;;6.55;2.80;;;8.10;99.90;;;;;;13076595;22;20038;-80
2021/04/30 07:17:52;;;;;;;6.78;2.80;;;8.00;99.90;;;;;;13056232;22;20019;-81
2021/04/30 07:22:53;;;;;;;17.13;3.75;;;8.10;99.90;;;;;;13110897;22;20017;-82
2021/04/30 07:27:54;;;;;;;9.40;3.53;;;8.10;99.90;;;;;;13077512;22;20390;-81
2021/04/30 07:32:54;;;;;;;7.68;2.78;;;8.30;99.90;;;;;;13052630;22;20087;-79
2021/04/30 07:37:55;;;;;;;10.18;3.35;;;8.20;99.90;;;;;;13073816;22;20015;-80
2021/04/30 07:42:56;;;;;;;9.90;3.58;;;8.20;99.90;;;;;;13098852;22;20030;-79
2021/04/30 07:47:57;;;;;;;11.38;3.30;;;8.30;99.90;;;;;;13073918;22;20015;-82
2021/04/30 07:52:59;;;;;;;8.07;4.15;;;8.30;99.90;;;;;;13051145;22;19999;-80
2021/04/30 07:58:00;;;;;;;11.98;3.80;;;8.40;99.90;;;;;;13079344;22;20018;-81
2021/04/30 08:03:01;;;;;;;12.55;4.22;;;8.50;99.90;;;;;;13101185;22;20010;-80
2021/04/30 08:08:04;;;;;;;8.50;3.72;;;8.50;99.90;;;;;;13081931;22;20007;-80
2021/04/30 08:13:05;;;;;;;10.10;3.80;;;8.50;99.90;;;;;;13055842;22;20011;-80
2021/04/30 08:18:05;;;;;;;12.50;3.63;;;8.60;99.90;;;;;;13079531;22;20035;-80
2021/04/30 08:23:06;;;;;;;12.30;3.58;;;8.60;99.90;;;;;;13079692;22;20011;-80
2021/04/30 08:28:07;;;;;;;10.88;3.97;;;8.60;99.90;;;;;;13083742;22;20011;-80
2021/04/30 08:33:07;;;;;;;10.68;4.45;;;8.60;99.90;;;;;;13087954;22;20129;-80
2021/04/30 08:38:08;;;;;;;13.80;3.65;;;8.70;99.90;;;;;;13062741;22;20168;-80
2021/04/30 08:43:09;;;;;;;10.68;4.22;;;8.80;99.90;;;;;;13090073;22;20385;-80
2021/04/30 08:48:14;;;;;;;10.38;3.83;;;8.80;99.90;;;;;;13090041;22;20011;-82
2021/04/30 08:53:16;;;;;;;12.73;4.45;;;8.80;99.90;;;;;;13112903;22;20011;-80
2021/04/30 08:58:22;;;;;;;10.10;3.70;;;8.80;99.90;;;;;;13110454;22;20557;-80
2021/04/30 09:03:23;;;;;;;13.50;3.83;;;8.80;99.90;;;;;;13087687;22;20041;-80
2021/04/30 09:08:24;;;;;;;12.38;3.53;;;8.80;99.90;;;;;;13115684;22;20494;-80
2021/04/30 09:13:25;;;;;;;10.93;3.03;;;8.80;99.90;;;;;;13088188;22;20011;-80
2021/04/30 09:18:28;;;;;;;7.95;2.90;;;8.80;99.90;;;;;;13085284;22;20842;-80
2021/04/30 09:23:49;;;;;;;5.55;2.38;;;8.70;99.90;;;;;;13086215;22;20025;-80
2021/04/30 09:29:03;;;;;;;7.90;3.03;;;8.60;99.90;;;;;;13113165;22;20076;-80
2021/04/30 09:34:26;;;;;;;8.60;3.88;;;8.60;99.90;;;;;;13115350;22;20373;-80
2021/04/30 09:39:27;;;;;;;7.43;3.20;;;8.70;99.90;;;;;;13110532;22;20015;-80
2021/04/30 09:44:41;;;;;;;6.68;2.72;;;8.70;99.90;;;;;;13044967;22;20015;-80
2021/04/30 09:49:44;;;;;;;9.40;3.25;;;8.80;99.90;;;;;;13113462;22;20451;-80
2021/04/30 09:54:45;;;;;;;15.20;4.60;;;8.80;99.90;;;;;;13114808;22;20011;-81
2021/04/30 09:59:53;;;;;;;10.82;3.95;;;8.70;99.90;;;;;;13108995;22;20107;-80
2021/04/30 10:04:56;;;;;;;10.88;4.07;;;8.70;99.90;;;;;;13088784;22;20007;-80
2021/04/30 10:10:24;;;;;;;9.82;4.15;;;8.60;99.90;;;;;;13115856;22;20038;-79
2021/04/30 10:15:25;;;;;;;11.88;3.58;;;8.60;99.90;;;;;;13107278;22;20060;-80
2021/04/30 10:20:26;;;;;;;8.98;4.45;;;8.60;99.90;;;;;;13070631;22;20015;-79
2021/04/30 10:25:29;;;;;;;10.57;5.22;;;8.70;99.90;;;;;;13079056;22;20386;-80
2021/04/30 10:30:37;;;;;;;8.57;3.92;;;8.70;99.90;;;;;;13076662;22;20011;-80
2021/04/30 10:36:06;;;;;;;10.73;4.68;;;8.70;99.90;;;;;;13103691;22;20633;-79
2021/04/30 10:41:13;;;;;;;;;;;8.80;99.90;;;;;;13094037;22;20014;-81
2021/04/30 10:46:14;;;;;;;9.93;3.25;;;8.80;99.90;;;;;;13104343;22;20009;-79
2021/04/30 10:51:15;;;;;;;9.18;3.17;;;8.70;99.90;;;;;;13071514;22;20025;-80
2021/04/30 10:56:35;;;;;;;8.95;4.20;;;8.70;99.90;;;;;;13092727;22;20006;-79
2021/04/30 11:01:37;;;;;;;8.32;4.25;;;8.70;99.90;;;;;;13095156;22;20139;-79
2021/04/30 11:06:40;;;;;;;7.88;3.90;;;8.70;99.90;;;;;;13078134;22;20003;-81
2021/04/30 11:11:45;;;;;;;8.10;4.25;;;8.60;99.90;;;;;;13104114;22;20010;-80
2021/04/30 11:16:47;;;;;;;6.13;3.13;;;8.50;99.90;;;;;;13077196;22;20035;-80
2021/04/30 11:21:52;;;;;;;8.10;3.47;;;8.50;99.90;;;;;;13078449;22;20014;-80
2021/04/30 11:27:11;;;;;;;8.75;3.75;;;8.40;99.90;;;;;;13105937;22;20031;-81
2021/04/30 11:32:20;;;;;;;;;;;8.40;99.90;;;;;;13077208;22;20007;-81
2021/04/30 11:37:23;;;;;;;6.50;2.83;;;8.40;99.90;;;;;;13104593;22;19906;-80
2021/04/30 11:42:31;;;;;;;10.27;3.60;;;8.40;99.90;;;;;;13028941;22;20011;-80
2021/04/30 11:47:35;;;;;;;8.68;3.70;;;8.40;99.90;;;;;;13104084;22;20451;-81
2021/04/30 11:52:41;;;;;;;12.93;4.40;;;8.40;99.90;;;;;;13105015;22;20069;-81
2021/04/30 11:57:59;;;;;;;8.32;3.72;;;8.50;99.90;;;;;;13100351;22;20011;-81
2021/04/30 12:03:08;;;;;;;7.82;3.63;;;8.60;99.90;;;;;;13056247;22;20076;-81
2021/04/30 12:08:08;;;;;;;10.00;3.95;;;8.70;99.90;;;;;;13082729;22;20628;-81
2021/04/30 12:13:18;;;;;;;7.97;3.40;;;8.70;99.90;;;;;;13080668;22;20294;-81
2021/04/30 12:18:20;;;;;;;7.88;3.67;;;8.70;99.90;;;;;;13108966;22;20023;-81
2021/04/30 12:23:20;;;;;;;11.93;4.85;;;8.70;99.90;;;;;;13083089;22;20035;-81
2021/04/30 12:28:27;;;;;;;8.02;3.85;;;8.70;99.90;;;;;;13085888;22;20015;-81
2021/04/30 12:33:34;;;;;;;10.15;3.75;;;8.70;99.90;;;;;;13114280;22;20015;-81
2021/04/30 12:38:37;;;;;;;8.98;3.70;;;8.70;99.90;;;;;;13087595;22;20750;-81
2021/04/30 12:43:39;;;;;;;8.32;3.55;;;8.80;99.90;;;;;;13086915;22;20060;-81
2021/04/30 12:48:44;;;;;;;8.63;4.25;;;8.90;99.90;;;;;;13087690;22;20076;-81
2021/04/30 12:53:46;;;;;;;12.70;5.35;;;8.90;99.90;;;;;;13111804;22;20015;-81
2021/04/30 12:59:06;;;;;;;10.45;4.47;;;9.20;99.90;;;;;;13112536;22;20086;-81
2021/04/30 13:04:15;;;;;;;8.25;4.53;;;9.30;99.90;;;;;;13087423;22;20010;-81
2021/04/30 13:09:20;;;;;;;10.65;4.32;;;9.30;99.90;;;;;;13091220;22;20367;-82
2021/04/30 13:14:20;;;;;;;8.65;3.33;;;9.40;99.90;;;;;;13060557;22;20014;-81
2021/04/30 13:19:24;;;;;;;10.43;4.45;;;9.50;99.90;;;;;;13084615;22;20099;-81
2021/04/30 13:24:26;;;;;;;9.48;4.43;;;9.50;99.90;;;;;;13083316;22;20433;-81
2021/04/30 13:29:28;;;;;;;7.72;3.28;;;9.60;99.90;;;;;;13080737;22;20055;-83
2021/04/30 13:34:45;;;;;;;10.13;4.45;;;9.80;99.90;;;;;;13081620;22;20022;-81
2021/04/30 13:39:48;;;;;;;12.07;4.90;;;10.00;99.90;;;;;;13087644;22;20014;-81
2021/04/30 13:44:55;;;;;;;7.38;4.07;;;10.30;99.90;;;;;;13086092;22;20011;-82
2021/04/30 13:50:00;;;;;;;8.63;2.97;;;10.30;99.90;;;;;;13083784;22;20017;-83
2021/04/30 13:55:01;;;;;;;11.23;5.20;;;10.70;99.90;;;;;;13056702;22;20014;-80
2021/04/30 14:00:04;;;;;;;7.45;4.00;;;11.00;99.90;;;;;;13081000;22;20026;-81
2021/04/30 14:05:06;;;;;;;11.18;4.07;;;11.40;99.90;;;;;;13082976;22;20056;-81
2021/04/30 14:10:08;;;;;;;6.10;2.85;;;11.40;99.90;;;;;;13083484;22;20379;-82
2021/04/30 14:15:11;;;;;;;7.28;2.97;;;11.40;99.90;;;;;;13080907;22;20012;-82
2021/04/30 14:20:15;;;;;;;8.05;3.58;;;11.40;99.90;;;;;;13081330;22;20033;-81
2021/04/30 14:25:16;;;;;;;6.07;3.17;;;11.20;99.90;;;;;;13053104;22;20009;-81
2021/04/30 14:30:18;;;;;;;8.30;3.55;;;11.20;99.90;;;;;;13075127;22;20030;-80
2021/04/30 14:35:18;;;;;;;8.82;3.55;;;11.20;99.90;;;;;;13077129;22;20002;-80
2021/04/30 14:40:19;;;;;;;9.45;2.67;;;11.20;99.90;;;;;;13057050;22;20442;-80
2021/04/30 14:45:19;;;;;;;6.30;2.80;;;11.10;99.90;;;;;;13082283;22;20007;-80
2021/04/30 14:50:20;;;;;;;5.57;2.67;;;10.80;99.90;;;;;;13109601;22;20007;-80
2021/04/30 14:55:21;;;;;;;7.05;3.38;;;10.70;99.90;;;;;;13082837;22;20014;-80
2021/04/30 15:00:22;;;;;;;8.10;2.90;;;10.60;99.90;;;;;;13083000;22;20019;-80
2021/04/30 15:05:22;;;;;;;8.23;3.13;;;10.50;99.90;;;;;;13088737;22;20030;-80
2021/04/30 15:10:23;;;;;;;6.53;2.90;;;10.50;99.90;;;;;;13088536;22;20082;-80
2021/04/30 15:15:26;;;;;;;11.38;3.42;;;10.40;99.90;;;;;;13082618;22;20010;-81
2021/04/30 15:20:30;;;;;;;7.80;3.30;;;10.30;99.90;;;;;;13083863;22;20015;-81
2021/04/30 15:25:36;;;;;;;8.00;3.83;;;10.60;99.90;;;;;;13084568;22;20076;-82
2021/04/30 15:30:38;;;;;;;7.03;3.35;;;10.60;99.90;;;;;;13110388;22;20092;-82
2021/04/30 15:35:39;;;;;;;8.15;3.45;;;10.60;99.90;;;;;;13082055;22;20723;-81
2021/04/30 15:40:40;;;;;;;9.45;3.20;;;10.70;99.90;;;;;;13057625;22;20075;-81
2021/04/30 15:45:40;;;;;;;5.88;2.55;;;10.70;99.90;;;;;;13091565;22;20018;-81
2021/04/30 15:50:41;;;;;;;4.22;2.30;;;10.70;99.90;;;;;;13115422;22;20038;-80
2021/04/30 15:55:42;;;;;;;4.95;2.47;;;10.50;99.90;;;;;;13072778;22;20023;-80
2021/04/30 16:00:42;;;;;;;5.68;2.25;;;10.40;99.90;;;;;;13052095;22;20015;-80
2021/04/30 16:05:43;;;;;;;8.13;2.38;;;10.20;99.90;;;;;;13109267;22;20018;-80
2021/04/30 16:10:44;;;;;;;6.97;2.33;;;10.20;99.90;;;;;;13058445;22;20019;-80
2021/04/30 16:15:44;;;;;;;4.80;2.10;;;10.00;99.90;;;;;;13086767;22;20010;-81
2021/04/30 16:20:45;;;;;;;7.20;2.28;;;9.90;99.90;;;;;;13058292;22;20053;-81
2021/04/30 16:25:46;;;;;;;4.70;2.05;;;9.90;99.90;;;;;;13085203;22;20014;-81
2021/04/30 16:30:47;;;;;;;8.75;3.08;;;9.70;99.90;;;;;;13056319;22;20695;-81
2021/04/30 16:35:47;;;;;;;10.95;3.22;;;9.60;99.90;;;;;;13085105;22;20049;-81
2021/04/30 16:40:49;;;;;;;13.82;3.03;;;9.50;99.90;;;;;;13084986;22;20018;-81
2021/04/30 16:46:10;;;;;;;9.50;3.22;;;9.50;99.90;;;;;;13102467;22;20018;-81
2021/04/30 16:51:11;;;;;;;6.47;2.58;;;9.50;99.90;;;;;;13087032;22;20025;-81
2021/04/30 16:56:13;;;;;;;7.38;3.28;;;9.40;99.90;;;;;;13057911;22;20031;-81
2021/04/30 17:01:14;;;;;;;12.05;3.33;;;9.40;99.90;;;;;;13057339;22;20019;-81
2021/04/30 17:06:17;;;;;;;4.32;2.00;;;9.40;99.90;;;;;;13109899;22;20076;-81
2021/04/30 17:11:18;;;;;;;5.78;1.92;;;9.40;99.90;;;;;;13082934;22;20056;-81
2021/04/30 17:16:19;;;;;;;4.70;2.17;;;9.50;99.90;;;;;;13058180;22;20331;-81
2021/04/30 17:21:21;;;;;;;6.15;2.38;;;9.50;99.90;;;;;;13055077;22;20019;-80
2021/04/30 17:26:21;;;;;;;6.25;2.90;;;9.60;99.90;;;;;;13059655;22;20038;-81
2021/04/30 17:31:22;;;;;;;4.57;1.65;;;9.50;99.90;;;;;;13060512;22;20006;-81
2021/04/30 17:36:23;;;;;;;8.68;2.53;;;9.40;99.90;;;;;;13089926;22;20322;-81
2021/04/30 17:41:23;;;;;;;6.22;2.38;;;9.20;99.90;;;;;;13062324;22;20011;-81
2021/04/30 17:46:24;;;;;;;5.35;2.33;;;9.20;99.90;;;;;;13083084;22;20017;-81
2021/04/30 17:51:25;;;;;;;6.13;2.78;;;9.10;99.90;;;;;;13084783;22;20058;-81
2021/04/30 17:56:25;;;;;;;5.20;2.22;;;9.00;99.90;;;;;;13058257;22;19999;-81
2021/04/30 18:01:26;;;;;;;6.32;2.83;;;9.00;99.90;;;;;;13084502;22;20011;-81
2021/04/30 18:06:28;;;;;;;6.82;2.60;;;8.90;99.90;;;;;;13058401;22;20013;-82
2021/04/30 18:11:28;;;;;;;5.20;2.00;;;8.90;99.90;;;;;;13090533;22;20006;-81
2021/04/30 18:16:30;;;;;;;4.63;2.38;;;8.90;99.90;;;;;;13059897;22;20007;-81
2021/04/30 18:21:35;;;;;;;4.68;2.17;;;8.80;99.90;;;;;;13110578;22;20019;-81
2021/04/30 18:26:36;;;;;;;4.40;2.00;;;8.80;99.90;;;;;;13085822;22;20037;-81
2021/04/30 18:31:37;;;;;;;5.72;2.15;;;8.70;99.90;;;;;;13057423;22;20007;-81
2021/04/30 18:36:38;;;;;;;4.45;1.92;;;8.70;99.90;;;;;;13080540;22;20019;-81
2021/04/30 18:41:41;;;;;;;3.88;2.17;;;8.60;99.90;;;;;;13078229;22;20026;-81
2021/04/30 18:46:41;;;;;;;10.38;2.65;;;8.60;99.90;;;;;;13081045;22;20077;-81
2021/04/30 18:51:46;;;;;;;8.00;3.30;;;8.70;99.90;;;;;;13113749;22;20042;-81
2021/04/30 18:56:47;;;;;;;8.30;2.85;;;8.70;99.90;;;;;;13061446;22;20492;-81
2021/04/30 19:01:49;;;;;;;7.20;2.78;;;8.60;99.90;;;;;;13085901;22;20331;-81
2021/04/30 19:06:50;;;;;;;5.53;1.70;;;8.60;99.90;;;;;;13090923;22;20021;-81
2021/04/30 19:11:51;;;;;;;5.35;2.13;;;8.60;99.90;;;;;;13088600;22;20007;-81
2021/04/30 19:16:52;;;;;;;4.50;1.60;;;8.60;99.90;;;;;;13060131;22;20015;-81
2021/04/30 19:21:53;;;;;;;5.20;2.10;;;8.50;99.90;;;;;;13083590;22;20011;-81
2021/04/30 19:26:54;;;;;;;3.80;1.50;;;8.40;99.90;;;;;;13078423;22;20014;-81
2021/04/30 19:31:56;;;;;;;3.97;1.30;;;8.40;99.90;;;;;;13058720;22;20006;-81
2021/04/30 19:36:57;;;;;;;3.70;1.65;;;8.30;99.90;;;;;;13049584;22;20042;-81
2021/04/30 19:41:57;;;;;;;4.90;2.10;;;8.30;99.90;;;;;;13049784;22;20007;-81
2021/04/30 19:46:58;;;;;;;7.10;1.95;;;8.20;99.90;;;;;;13049967;22;20044;-81
2021/04/30 19:51:58;;;;;;;3.78;1.73;;;8.20;99.90;;;;;;13097068;22;20465;-81
2021/04/30 19:57:00;;;;;;;4.20;1.92;;;8.10;99.90;;;;;;13073297;22;20030;-81
2021/04/30 20:02:01;;;;;;;5.57;2.25;;;8.00;99.90;;;;;;13053294;22;20022;-80
2021/04/30 20:07:04;;;;;;;5.30;1.98;;;7.90;99.90;;;;;;13119222;22;20021;-80
2021/04/30 20:12:05;;;;;;;4.68;2.05;;;7.80;99.90;;;;;;13084757;22;20010;-80
2021/04/30 20:17:06;;;;;;;6.53;2.20;;;7.60;99.90;;;;;;13051371;22;19999;-80
2021/04/30 20:22:06;;;;;;;6.05;2.03;;;7.50;99.90;;;;;;13077370;22;20002;-80
2021/04/30 20:27:07;;;;;;;4.40;2.30;;;7.40;99.90;;;;;;13077504;22;20032;-80
2021/04/30 20:32:08;;;;;;;6.00;2.28;;;7.30;99.90;;;;;;13103123;22;20015;-80
2021/04/30 20:37:09;;;;;;;5.53;2.67;;;7.30;99.90;;;;;;13077784;22;20462;-79
2021/04/30 20:42:10;;;;;;;7.45;2.78;;;7.20;99.90;;;;;;13051736;22;20011;-79
2021/04/30 20:47:11;;;;;;;6.80;2.47;;;7.30;99.90;;;;;;13051404;22;20038;-79
2021/04/30 20:52:11;;;;;;;4.35;1.77;;;7.30;99.90;;;;;;13077671;22;20053;-79
2021/04/30 20:57:12;;;;;;;4.70;2.08;;;7.30;99.90;;;;;;13104210;22;20007;-79
2021/04/30 21:02:13;;;;;;;4.55;2.10;;;7.30;99.90;;;;;;13076832;22;20445;-79
2021/04/30 21:07:14;;;;;;;5.45;2.50;;;7.30;99.90;;;;;;13052286;22;20002;-79
2021/04/30 21:12:29;;;;;;;7.03;2.65;;;7.20;99.90;;;;;;13051724;22;20062;-79
2021/04/30 21:17:30;;;;;;;5.60;2.38;;;7.10;99.90;;;;;;13054908;22;20069;-79
2021/04/30 21:22:31;;;;;;;4.15;2.25;;;7.00;99.90;;;;;;13078815;22;20072;-79
2021/04/30 21:27:31;;;;;;;3.63;1.80;;;7.00;99.90;;;;;;13052479;22;20026;-79
2021/04/30 21:32:32;;;;;;;6.13;2.45;;;6.90;99.90;;;;;;13052878;22;20101;-79
2021/04/30 21:37:32;;;;;;;7.72;3.00;;;6.90;99.90;;;;;;13052147;22;20015;-79
2021/04/30 21:42:34;;;;;;;11.15;2.58;;;6.80;99.90;;;;;;13086509;22;20025;-79
2021/04/30 21:47:34;;;;;;;7.05;2.28;;;6.80;99.90;;;;;;13081419;22;20052;-79
2021/04/30 21:52:35;;;;;;;6.22;2.40;;;6.80;99.90;;;;;;13076342;22;20076;-79
2021/04/30 21:57:36;;;;;;;5.95;2.08;;;6.70;99.90;;;;;;13049515;22;20846;-79
2021/04/30 22:02:37;;;;;;;6.80;2.03;;;6.70;99.90;;;;;;13099913;22;20019;-78
2021/04/30 22:07:37;;;;;;;3.85;1.67;;;6.70;99.90;;;;;;13074766;22;20500;-78
2021/04/30 22:12:38;;;;;;;3.83;2.05;;;6.70;99.90;;;;;;13048281;22;20015;-78
2021/04/30 22:17:39;;;;;;;5.05;2.08;;;6.60;99.90;;;;;;13048881;22;20002;-78
2021/04/30 22:22:39;;;;;;;4.95;1.50;;;6.60;99.90;;;;;;13099863;22;20049;-78
2021/04/30 22:27:40;;;;;;;5.85;2.22;;;6.60;99.90;;;;;;13048576;22;20067;-78
2021/04/30 22:32:41;;;;;;;7.28;2.30;;;6.60;99.90;;;;;;13098293;22;20013;-78
2021/04/30 22:37:41;;;;;;;5.72;2.13;;;6.50;99.90;;;;;;13048614;22;20075;-78
2021/04/30 22:42:42;;;;;;;3.78;1.80;;;6.50;99.90;;;;;;13072257;22;20023;-78
2021/04/30 22:47:43;;;;;;;4.82;2.13;;;6.50;99.90;;;;;;13072022;22;20011;-78
2021/04/30 22:52:44;;;;;;;5.85;2.50;;;6.50;99.90;;;;;;13046877;22;20058;-78
2021/04/30 22:57:44;;;;;;;4.57;1.67;;;6.50;99.90;;;;;;13071421;22;20469;-78
2021/04/30 23:02:45;;;;;;;8.35;2.70;;;6.50;99.90;;;;;;13046235;22;20015;-78
2021/04/30 23:07:46;;;;;;;7.75;2.20;;;6.40;99.90;;;;;;13072301;22;20334;-78
2021/04/30 23:12:46;;;;;;;6.10;1.88;;;6.40;99.90;;;;;;13046565;22;20438;-78
2021/04/30 23:17:47;;;;;;;6.88;2.05;;;6.40;99.90;;;;;;13072776;22;20026;-78
2021/04/30 23:22:47;;;;;;;6.13;2.40;;;6.40;99.90;;;;;;13046459;22;20021;-78
2021/04/30 23:27:48;;;;;;;6.10;2.13;;;6.40;99.90;;;;;;13072646;22;20003;-78
2021/04/30 23:32:49;;;;;;;4.65;2.17;;;6.40;99.90;;;;;;13046131;22;20114;-78
2021/04/30 23:37:50;;;;;;;4.53;2.10;;;6.40;99.90;;;;;;13047484;22;20042;-78
2021/04/30 23:42:50;;;;;;;5.55;2.63;;;6.40;99.90;;;;;;13046484;22;20011;-78
2021/04/30 23:47:51;;;;;;;5.43;2.20;;;6.20;99.90;;;;;;13045924;22;20037;-78
2021/04/30 23:52:51;;;;;;;3.65;1.75;;;6.20;99.90;;;;;;13072698;22;20022;-78
2021/04/30 23:57:52;;;;;;;8.15;2.42;;;6.10;99.90;;;;;;13050049;22;20087;-78
